Time;durP1;ratioP1;P1;durP2;ratioP2;P2;SDS_P1;SDS_P2;PMS_P1;PMS_P2;Temp;Humidity;BMP_temperature;BMP_pressure;BME280_temperature;BME280_humidity;BME280_pressure;Samples;Min_cycle;Max_cycle;Signal;HPM_P1;HPM_P2
2022/08/28 00:01:58;;;;;;;;;;;21.00;81.30;;;;;;5071547;28;19963;-79
2022/08/28 00:04:25;;;;;;;;;;;21.00;81.50;;;;;;5065967;28;20318;-81
2022/08/28 00:06:51;;;;;;;;;;;20.90;81.60;;;;;;5052449;28;19925;-80
2022/08/28 00:09:18;;;;;;;;;;;20.80;81.70;;;;;;5065915;28;19959;-80
2022/08/28 00:11:46;;;;;;;;;;;20.80;82.20;;;;;;5052539;28;19979;-79
2022/08/28 00:14:13;;;;;;;;;;;20.70;82.70;;;;;;5045546;28;19971;-81
2022/08/28 00:16:40;;;;;;;;;;;20.70;83.00;;;;;;5062706;28;19932;-80
2022/08/28 00:19:08;;;;;;;;;;;20.70;83.20;;;;;;5064174;28;19928;-79
2022/08/28 00:21:36;;;;;;;;;;;20.60;83.20;;;;;;5060469;28;19928;-80
2022/08/28 00:24:02;;;;;;;;;;;20.70;83.50;;;;;;5072287;28;20441;-80
2022/08/28 00:29:15;;;;;;;;;;;20.60;84.90;;;;;;5072708;28;20374;-79
2022/08/28 00:31:41;;;;;;;;;;;20.50;84.70;;;;;;5061462;28;19964;-79
2022/08/28 00:34:09;;;;;;;;;;;20.40;85.10;;;;;;5057526;28;19994;-80
2022/08/28 00:36:36;;;;;;;;;;;20.30;84.80;;;;;;5079423;28;19973;-79
2022/08/28 00:39:04;;;;;;;;;;;20.20;85.50;;;;;;5059117;28;20395;-79
2022/08/28 00:41:34;;;;;;;;;;;20.20;86.40;;;;;;5070985;28;19970;-79
2022/08/28 00:44:12;;;;;;;;;;;20.10;85.80;;;;;;5059912;28;19974;-80
2022/08/28 00:46:40;;;;;;;;;;;20.10;85.60;;;;;;5080972;28;19924;-79
2022/08/28 00:49:08;;;;;;;;;;;20.10;85.50;;;;;;5061005;28;20019;-80
2022/08/28 00:54:22;;;;;;;;;;;20.10;85.50;;;;;;5064775;28;19928;-80
2022/08/28 00:56:52;;;;;;;;;;;20.10;85.50;;;;;;5055557;28;20388;-80
2022/08/28 00:59:20;;;;;;;;;;;20.00;85.90;;;;;;5062910;28;19963;-81
2022/08/28 01:01:47;;;;;;;;;;;20.00;86.30;;;;;;5063147;28;20437;-79
2022/08/28 01:04:15;;;;;;;;;;;20.00;87.30;;;;;;5068405;28;19973;-80
2022/08/28 01:06:47;;;;;;;;;;;19.90;86.60;;;;;;5061402;28;19966;-80
2022/08/28 01:09:14;;;;;;;;;;;19.90;86.70;;;;;;5047259;28;19940;-79
2022/08/28 01:11:47;;;;;;;;;;;19.90;87.00;;;;;;5057981;28;20300;-80
2022/08/28 01:14:14;;;;;;;;;;;19.80;86.80;;;;;;5062716;28;20441;-81
2022/08/28 01:16:42;;;;;;;;;;;19.80;87.00;;;;;;5067834;28;19959;-80
2022/08/28 01:19:13;;;;;;;;;;;19.70;87.10;;;;;;5042960;28;19974;-81
2022/08/28 01:21:46;;;;;;;;;;;19.80;87.40;;;;;;5059660;28;19968;-80
2022/08/28 01:24:14;;;;;;;;;;;19.70;87.70;;;;;;5059842;28;20015;-80
2022/08/28 01:26:42;;;;;;;;;;;19.80;87.80;;;;;;5054723;28;20358;-81
2022/08/28 01:29:10;;;;;;;;;;;19.80;87.60;;;;;;5068846;28;19925;-79
2022/08/28 01:31:38;;;;;;;;;;;19.80;87.60;;;;;;5054075;28;20430;-80
2022/08/28 01:34:05;;;;;;;;;;;19.70;87.70;;;;;;5058994;28;20369;-81
2022/08/28 01:36:32;;;;;;;;;;;19.80;87.90;;;;;;5059678;28;19939;-82
2022/08/28 01:39:19;;;;;;;;;;;19.80;88.40;;;;;;5058888;28;19944;-80
2022/08/28 01:41:47;;;;;;;;;;;19.80;88.70;;;;;;5054541;28;19925;-79
2022/08/28 01:44:14;;;;;;;;;;;19.80;88.80;;;;;;5077248;28;19967;-81
2022/08/28 01:46:44;;;;;;;;;;;19.80;88.70;;;;;;5059093;28;19932;-80
2022/08/28 01:49:11;;;;;;;;;;;19.70;88.40;;;;;;5081783;28;20014;-80
2022/08/28 01:51:38;;;;;;;;;;;19.70;88.10;;;;;;5063953;28;19946;-81
2022/08/28 01:54:06;;;;;;;;;;;19.80;87.90;;;;;;5063439;28;19964;-80
2022/08/28 01:56:35;;;;;;;;;;;19.70;87.70;;;;;;5070548;28;19931;-79
2022/08/28 01:59:03;;;;;;;;;;;19.70;87.60;;;;;;5067020;28;20371;-80
2022/08/28 02:01:30;;;;;;;;;;;19.70;87.20;;;;;;5059180;28;19974;-80
2022/08/28 02:03:56;;;;;;;;;;;19.70;87.00;;;;;;5054066;28;20345;-81
2022/08/28 02:06:24;;;;;;;;;;;19.60;87.20;;;;;;5067376;28;19932;-81
2022/08/28 02:08:54;;;;;;;;;;;19.60;87.00;;;;;;5067905;28;19981;-79
2022/08/28 02:11:24;;;;;;;;;;;19.50;86.90;;;;;;5060146;28;20453;-80
2022/08/28 02:13:52;;;;;;;;;;;19.50;87.10;;;;;;5070932;28;20060;-81
2022/08/28 02:16:19;;;;;;;;;;;19.50;87.30;;;;;;5066620;28;19925;-80
2022/08/28 02:18:49;;;;;;;;;;;19.50;87.40;;;;;;5074476;28;20065;-81
2022/08/28 02:21:16;;;;;;;;;;;19.40;87.20;;;;;;5053455;28;19970;-81
2022/08/28 02:23:43;;;;;;;;;;;19.40;87.40;;;;;;5061821;28;19928;-80
2022/08/28 02:26:10;;;;;;;;;;;19.30;87.60;;;;;;5058098;28;19968;-81
2022/08/28 02:28:37;;;;;;;;;;;19.30;88.10;;;;;;5068863;28;19971;-79
2022/08/28 02:31:07;;;;;;;;;;;19.20;88.10;;;;;;5056083;28;20316;-80
2022/08/28 02:33:37;;;;;;;;;;;19.20;88.30;;;;;;5056566;28;19924;-80
2022/08/28 02:36:05;;;;;;;;;;;19.20;88.60;;;;;;5058660;28;19925;-80
2022/08/28 02:38:32;;;;;;;;;;;19.20;88.70;;;;;;5057615;28;19928;-79
2022/08/28 02:40:59;;;;;;;;;;;19.20;88.80;;;;;;5059763;28;20047;-81
2022/08/28 02:43:30;;;;;;;;;;;19.10;88.70;;;;;;5059432;28;19978;-79
2022/08/28 02:45:57;;;;;;;;;;;19.10;88.90;;;;;;5072079;28;20033;-81
2022/08/28 02:48:31;;;;;;;;;;;19.10;88.70;;;;;;5058622;28;19924;-81
2022/08/28 02:51:03;;;;;;;;;;;19.10;88.70;;;;;;5061240;28;19960;-81
2022/08/28 02:53:29;;;;;;;;;;;19.00;88.80;;;;;;5054032;28;20372;-82
2022/08/28 02:55:57;;;;;;;;;;;19.00;88.90;;;;;;5073645;28;19952;-79
2022/08/28 02:58:25;;;;;;;;;;;19.00;88.90;;;;;;5077097;28;19924;-81
2022/08/28 03:00:52;;;;;;;;;;;19.00;89.10;;;;;;5059929;28;19928;-80
2022/08/28 03:03:19;;;;;;;;;;;19.00;89.50;;;;;;5059874;28;19978;-80
2022/08/28 03:05:46;;;;;;;;;;;19.00;89.90;;;;;;5068606;28;19962;-79
2022/08/28 03:08:13;;;;;;;;;;;19.00;90.00;;;;;;5059767;28;19967;-79
2022/08/28 03:10:40;;;;;;;;;;;19.00;90.00;;;;;;5055386;28;20408;-80
2022/08/28 03:13:08;;;;;;;;;;;19.00;89.90;;;;;;5056752;28;19967;-81
2022/08/28 03:15:34;;;;;;;;;;;18.90;90.30;;;;;;5074627;28;19924;-80
2022/08/28 03:18:01;;;;;;;;;;;18.80;90.10;;;;;;5057066;28;20410;-79
2022/08/28 03:20:34;;;;;;;;;;;18.70;90.60;;;;;;5057735;28;19925;-81
2022/08/28 03:25:46;;;;;;;;;;;18.70;90.20;;;;;;5071076;28;19931;-81
2022/08/28 03:28:13;;;;;;;;;;;18.70;90.10;;;;;;5060212;28;20441;-80
2022/08/28 03:30:39;;;;;;;;;;;18.70;90.10;;;;;;5048550;28;20385;-78
2022/08/28 03:33:06;;;;;;;;;;;18.70;90.10;;;;;;5066977;28;20035;-79
2022/08/28 03:35:33;;;;;;;;;;;18.60;90.10;;;;;;5070671;28;19968;-81
2022/08/28 03:38:00;;;;;;;;;;;18.60;90.10;;;;;;5065814;28;19952;-79
2022/08/28 03:40:27;;;;;;;;;;;18.60;90.20;;;;;;5073128;28;19967;-81
2022/08/28 03:42:54;;;;;;;;;;;18.60;90.20;;;;;;5060997;28;19925;-79
2022/08/28 03:45:21;;;;;;;;;;;18.60;90.30;;;;;;5071222;28;20427;-79
2022/08/28 03:47:48;;;;;;;;;;;18.60;90.30;;;;;;5055914;28;19924;-80
2022/08/28 03:50:16;;;;;;;;;;;18.60;90.40;;;;;;5063374;28;20379;-81
2022/08/28 03:52:45;;;;;;;;;;;18.60;90.50;;;;;;5059169;28;20304;-81
2022/08/28 03:55:12;;;;;;;;;;;18.70;90.60;;;;;;5060214;28;19932;-81
2022/08/28 03:57:39;;;;;;;;;;;18.70;90.60;;;;;;5051163;28;20016;-81
2022/08/28 04:00:08;;;;;;;;;;;18.70;90.60;;;;;;5075619;28;20346;-79
2022/08/28 04:02:35;;;;;;;;;;;18.70;90.60;;;;;;5066179;28;20268;-80
2022/08/28 04:05:02;;;;;;;;;;;18.70;90.70;;;;;;5080970;28;19963;-81
2022/08/28 04:07:28;;;;;;;;;;;18.70;90.70;;;;;;5062592;28;20311;-81
2022/08/28 04:09:55;;;;;;;;;;;18.70;90.80;;;;;;5059889;28;19971;-82
2022/08/28 04:12:22;;;;;;;;;;;18.70;90.90;;;;;;5051967;28;20381;-80
2022/08/28 04:14:48;;;;;;;;;;;18.70;90.90;;;;;;5059469;28;19964;-80
2022/08/28 04:17:15;;;;;;;;;;;18.70;91.00;;;;;;5074097;28;19975;-82
2022/08/28 04:19:43;;;;;;;;;;;18.70;90.90;;;;;;5063804;28;19932;-80
2022/08/28 04:22:10;;;;;;;;;;;18.70;90.90;;;;;;5056266;28;19924;-80
2022/08/28 04:24:38;;;;;;;;;;;18.70;91.00;;;;;;5067360;28;20008;-81
2022/08/28 04:27:04;;;;;;;;;;;18.70;90.90;;;;;;5062677;28;19925;-79
2022/08/28 04:29:31;;;;;;;;;;;18.60;90.80;;;;;;5058355;28;20281;-81
2022/08/28 04:31:58;;;;;;;;;;;18.60;90.70;;;;;;5081125;28;19971;-79
2022/08/28 04:34:25;;;;;;;;;;;18.60;90.70;;;;;;5070600;28;20384;-82
2022/08/28 04:36:52;;;;;;;;;;;18.50;90.80;;;;;;5055478;28;19962;-81
2022/08/28 04:39:19;;;;;;;;;;;18.50;91.00;;;;;;5053826;28;19928;-83
2022/08/28 04:41:46;;;;;;;;;;;18.50;91.10;;;;;;5072101;28;19960;-81
2022/08/28 04:44:12;;;;;;;;;;;18.60;91.20;;;;;;5059243;28;19924;-80
2022/08/28 04:46:39;;;;;;;;;;;18.60;91.40;;;;;;5055597;28;19928;-80
2022/08/28 04:49:06;;;;;;;;;;;18.60;91.40;;;;;;5056311;28;20438;-79
2022/08/28 04:51:33;;;;;;;;;;;18.60;91.40;;;;;;5078338;28;19925;-80
2022/08/28 04:54:04;;;;;;;;;;;18.60;91.30;;;;;;5054128;28;19978;-80
2022/08/28 04:56:31;;;;;;;;;;;18.60;91.40;;;;;;5054873;28;19960;-82
2022/08/28 04:58:59;;;;;;;;;;;18.70;91.40;;;;;;5066924;28;19925;-82
2022/08/28 05:01:25;;;;;;;;;;;18.60;91.40;;;;;;5053573;28;19952;-80
2022/08/28 05:03:54;;;;;;;;;;;18.70;91.40;;;;;;5054192;28;19934;-79
2022/08/28 05:06:25;;;;;;;;;;;18.70;91.40;;;;;;5065578;28;19968;-79
2022/08/28 05:08:54;;;;;;;;;;;18.70;91.20;;;;;;5068533;28;19928;-79
2022/08/28 05:11:22;;;;;;;;;;;18.70;91.10;;;;;;5072438;28;19966;-81
2022/08/28 05:14:01;;;;;;;;;;;18.70;91.00;;;;;;5066636;28;20011;-81
2022/08/28 05:16:27;;;;;;;;;;;18.70;91.30;;;;;;5055938;28;19925;-80
2022/08/28 05:18:58;;;;;;;;;;;18.70;91.30;;;;;;5058160;28;19954;-79
2022/08/28 05:21:27;;;;;;;;;;;18.60;91.20;;;;;;5064527;28;20348;-78
2022/08/28 05:23:55;;;;;;;;;;;18.60;91.10;;;;;;5054288;28;19956;-79
2022/08/28 05:26:22;;;;;;;;;;;18.60;91.10;;;;;;5049372;28;19962;-81
2022/08/28 05:28:53;;;;;;;;;;;18.60;91.20;;;;;;5057585;28;19932;-83
2022/08/28 05:31:20;;;;;;;;;;;18.50;91.20;;;;;;5070002;28;19978;-78
2022/08/28 05:33:48;;;;;;;;;;;18.60;91.30;;;;;;5057363;28;19928;-79
2022/08/28 05:36:15;;;;;;;;;;;18.60;91.40;;;;;;5050989;28;19930;-80
2022/08/28 05:38:43;;;;;;;;;;;18.60;91.40;;;;;;5052276;28;19929;-82
2022/08/28 05:41:10;;;;;;;;;;;18.70;91.80;;;;;;5054591;28;19966;-80
2022/08/28 05:43:38;;;;;;;;;;;18.70;91.40;;;;;;5057636;28;19924;-80
2022/08/28 05:46:09;;;;;;;;;;;18.70;91.60;;;;;;5048598;28;20373;-82
2022/08/28 05:48:37;;;;;;;;;;;18.80;91.50;;;;;;5068903;28;19931;-82
2022/08/28 05:51:09;;;;;;;;;;;18.80;91.40;;;;;;5039029;28;19932;-79
2022/08/28 05:53:39;;;;;;;;;;;18.80;91.40;;;;;;5052691;28;19959;-82
2022/08/28 05:56:10;;;;;;;;;;;18.90;92.50;;;;;;5043651;28;19968;-80
2022/08/28 05:58:39;;;;;;;;;;;18.80;92.20;;;;;;5056591;28;19935;-79
2022/08/28 06:01:07;;;;;;;;;;;18.90;92.40;;;;;;5038730;28;19947;-82
2022/08/28 06:03:34;;;;;;;;;;;18.90;92.10;;;;;;5042399;28;19928;-79
2022/08/28 06:06:02;;;;;;;;;;;18.90;92.60;;;;;;5046448;28;19936;-80
2022/08/28 06:08:30;;;;;;;;;;;18.90;92.20;;;;;;5040275;28;19951;-82
2022/08/28 06:10:57;;;;;;;;;;;18.90;92.10;;;;;;5049601;28;19970;-82
2022/08/28 06:13:24;;;;;;;;;;;19.00;92.20;;;;;;5089495;28;19924;-81
2022/08/28 06:15:51;;;;;;;;;;;19.10;92.70;;;;;;5052460;28;20369;-82
2022/08/28 06:18:18;;;;;;;;;;;19.10;92.90;;;;;;5057942;28;19928;-82
2022/08/28 06:20:45;;;;;;;;;;;19.10;92.40;;;;;;5063741;28;19980;-82
2022/08/28 06:23:14;;;;;;;;;;;19.20;92.40;;;;;;5063150;28;20567;-82
2022/08/28 06:25:50;;;;;;;;;;;19.20;92.30;;;;;;5057364;28;19924;-81
2022/08/28 06:28:21;;;;;;;;;;;19.20;92.20;;;;;;5069076;28;19935;-82
2022/08/28 06:30:49;;;;;;;;;;;19.30;92.20;;;;;;5051147;28;19956;-83
2022/08/28 06:33:36;;;;;;;;;;;19.40;92.20;;;;;;5048947;28;20016;-83
2022/08/28 06:36:03;;;;;;;;;;;19.50;92.50;;;;;;5047450;28;19928;-80
2022/08/28 06:38:30;;;;;;;;;;;19.50;92.40;;;;;;5048097;28;19971;-83
2022/08/28 06:40:57;;;;;;;;;;;19.60;92.60;;;;;;5047269;28;19977;-81
2022/08/28 06:43:26;;;;;;;;;;;19.70;92.10;;;;;;5047129;28;20389;-80
2022/08/28 06:45:53;;;;;;;;;;;19.80;92.00;;;;;;5046215;28;20415;-83
2022/08/28 06:48:22;;;;;;;;;;;19.90;92.00;;;;;;5061689;28;19925;-81
2022/08/28 06:50:53;;;;;;;;;;;20.00;91.80;;;;;;5053336;28;20408;-80
2022/08/28 06:53:22;;;;;;;;;;;20.10;91.60;;;;;;5053182;28;19924;-80
2022/08/28 06:55:56;;;;;;;;;;;20.20;91.20;;;;;;5046874;28;19924;-81
2022/08/28 06:58:23;;;;;;;;;;;20.20;90.80;;;;;;5045782;28;20007;-80
2022/08/28 07:00:51;;;;;;;;;;;20.30;90.60;;;;;;5056376;28;20459;-84
2022/08/28 07:03:28;;;;;;;;;;;20.40;90.50;;;;;;5059277;28;19929;-82
2022/08/28 07:05:56;;;;;;;;;;;20.50;90.40;;;;;;5042039;28;19971;-82
2022/08/28 07:08:26;;;;;;;;;;;20.60;90.10;;;;;;5043594;28;19952;-83
2022/08/28 07:10:54;;;;;;;;;;;20.60;90.00;;;;;;5044014;28;19960;-81
2022/08/28 07:13:21;;;;;;;;;;;20.70;89.30;;;;;;5040964;28;19925;-79
2022/08/28 07:15:48;;;;;;;;;;;20.80;88.40;;;;;;5040216;28;20381;-80
2022/08/28 07:18:16;;;;;;;;;;;20.90;87.30;;;;;;5037641;28;20305;-82
2022/08/28 07:20:43;;;;;;;;;;;21.00;86.10;;;;;;5043619;28;20481;-84
2022/08/28 07:23:10;;;;;;;;;;;21.10;85.60;;;;;;5042915;28;19979;-84
2022/08/28 07:25:40;;;;;;;;;;;21.20;84.60;;;;;;5045478;28;20301;-84
2022/08/28 07:28:07;;;;;;;;;;;21.30;83.80;;;;;;5055717;28;19991;-79
2022/08/28 07:30:34;;;;;;;;;;;21.50;82.70;;;;;;5075634;28;19924;-82
2022/08/28 07:33:01;;;;;;;;;;;21.70;82.20;;;;;;5059564;28;19968;-82
2022/08/28 07:35:28;;;;;;;;;;;21.80;80.80;;;;;;5061286;28;19952;-83
2022/08/28 07:37:56;;;;;;;;;;;22.00;80.60;;;;;;5055678;28;20389;-84
2022/08/28 07:40:22;;;;;;;;;;;22.20;79.00;;;;;;5046385;28;20179;-81
2022/08/28 07:45:35;;;;;;;;;;;22.40;74.60;;;;;;5040527;28;19975;-83
2022/08/28 07:48:03;;;;;;;;;;;22.60;73.10;;;;;;5046986;28;19933;-81
2022/08/28 07:50:35;;;;;;;;;;;22.70;72.90;;;;;;5050528;28;19925;-84
2022/08/28 07:53:03;;;;;;;;;;;22.80;73.20;;;;;;5051323;28;19933;-80
2022/08/28 07:55:30;;;;;;;;;;;22.90;73.20;;;;;;5045171;28;19959;-84
2022/08/28 07:57:57;;;;;;;;;;;23.10;72.90;;;;;;5046713;28;19983;-85
2022/08/28 08:00:24;;;;;;;;;;;23.20;72.20;;;;;;5063941;28;19937;-85
2022/08/28 08:02:50;;;;;;;;;;;23.30;72.50;;;;;;5054634;28;19937;-84
2022/08/28 08:05:17;;;;;;;;;;;23.50;72.30;;;;;;5047193;28;19933;-82
2022/08/28 08:07:45;;;;;;;;;;;23.70;72.30;;;;;;5062014;28;19925;-81
2022/08/28 08:10:13;;;;;;;;;;;23.80;71.10;;;;;;5054148;28;19936;-84
2022/08/28 08:12:46;;;;;;;;;;;24.00;70.50;;;;;;5046553;28;19998;-80
2022/08/28 08:15:12;;;;;;;;;;;24.20;70.30;;;;;;5054754;28;19929;-80
2022/08/28 08:17:39;;;;;;;;;;;24.40;67.50;;;;;;5059785;28;19956;-80
2022/08/28 08:20:07;;;;;;;;;;;24.60;66.30;;;;;;5054355;28;19974;-86
2022/08/28 08:22:34;;;;;;;;;;;24.70;65.80;;;;;;5049602;28;19969;-86
2022/08/28 08:25:04;;;;;;;;;;;24.80;65.00;;;;;;5052057;28;19956;-85
2022/08/28 08:27:36;;;;;;;;;;;24.90;64.40;;;;;;5043574;28;19956;-81
2022/08/28 08:30:09;;;;;;;;;;;25.00;63.70;;;;;;5052425;28;19928;-85
2022/08/28 08:32:38;;;;;;;;;;;25.10;63.30;;;;;;5055557;28;19981;-80
2022/08/28 08:35:05;;;;;;;;;;;25.20;63.50;;;;;;5063319;28;19960;-85
2022/08/28 08:37:32;;;;;;;;;;;25.40;63.10;;;;;;5062179;28;19928;-81
2022/08/28 08:39:59;;;;;;;;;;;25.50;62.30;;;;;;5051638;28;19928;-78
2022/08/28 08:42:32;;;;;;;;;;;25.60;62.70;;;;;;5046399;28;19950;-79
2022/08/28 08:45:02;;;;;;;;;;;25.70;62.70;;;;;;5055227;28;19964;-81
2022/08/28 08:47:50;;;;;;;;;;;25.90;62.30;;;;;;5048894;28;20346;-85
2022/08/28 08:50:16;;;;;;;;;;;25.90;62.50;;;;;;5050059;28;19997;-81
2022/08/28 08:52:46;;;;;;;;;;;26.00;62.70;;;;;;5065234;28;19963;-82
2022/08/28 08:55:19;;;;;;;;;;;26.10;61.40;;;;;;5059747;28;19981;-86
2022/08/28 08:57:50;;;;;;;;;;;26.30;61.20;;;;;;5063451;28;19925;-86
2022/08/28 09:00:17;;;;;;;;;;;26.30;60.60;;;;;;5048212;28;20326;-79
2022/08/28 09:02:47;;;;;;;;;;;26.40;60.80;;;;;;5070881;28;19932;-78
2022/08/28 09:05:19;;;;;;;;;;;26.50;60.60;;;;;;5059780;28;20392;-86
2022/08/28 09:07:50;;;;;;;;;;;26.60;60.50;;;;;;5066591;28;19924;-86
2022/08/28 09:10:18;;;;;;;;;;;26.70;58.70;;;;;;5073792;28;20006;-78
2022/08/28 09:12:54;;;;;;;;;;;26.90;58.60;;;;;;5053951;28;19963;-86
2022/08/28 09:15:32;;;;;;;;;;;27.10;57.10;;;;;;5076632;28;19985;-79
2022/08/28 09:18:12;;;;;;;;;;;27.10;55.50;;;;;;5050887;28;20415;-81
2022/08/28 09:20:40;;;;;;;;;;;27.10;54.50;;;;;;5068610;28;20039;-79
2022/08/28 09:23:09;;;;;;;;;;;27.20;55.50;;;;;;5053359;28;20442;-86
2022/08/28 09:25:56;;;;;;;;;;;27.20;55.40;;;;;;5064126;28;19924;-82
2022/08/28 09:28:27;;;;;;;;;;;27.30;54.80;;;;;;5057413;28;19928;-79
2022/08/28 09:30:56;;;;;;;;;;;27.40;54.40;;;;;;5077049;28;19954;-87
2022/08/28 09:33:32;;;;;;;;;;;27.50;54.00;;;;;;5058067;28;20011;-86
2022/08/28 09:36:17;;;;;;;;;;;27.60;53.70;;;;;;5055816;28;19951;-80
2022/08/28 09:38:44;;;;;;;;;;;27.70;52.80;;;;;;5045332;28;19924;-80
2022/08/28 09:43:56;;;;;;;;;;;27.90;53.00;;;;;;5075299;28;19933;-83
2022/08/28 09:46:28;;;;;;;;;;;28.00;52.00;;;;;;5061583;28;19990;-86
2022/08/28 09:49:11;;;;;;;;;;;28.10;50.00;;;;;;5064150;28;19924;-86
2022/08/28 09:51:38;;;;;;;;;;;28.10;50.10;;;;;;5063283;28;19947;-82
2022/08/28 09:54:11;;;;;;;;;;;28.10;50.10;;;;;;5048812;28;19925;-82
2022/08/28 09:56:39;;;;;;;;;;;28.10;51.30;;;;;;5060424;28;19925;-85
2022/08/28 09:59:06;;;;;;;;;;;28.30;51.30;;;;;;5051942;28;19974;-85
2022/08/28 10:01:42;;;;;;;;;;;28.30;52.10;;;;;;5065764;28;19924;-82
2022/08/28 10:04:30;;;;;;;;;;;28.50;52.00;;;;;;5066841;28;20019;-81
2022/08/28 10:07:02;;;;;;;;;;;28.70;51.00;;;;;;5066883;28;20384;-85
2022/08/28 10:09:47;;;;;;;;;;;28.80;50.20;;;;;;5045343;28;19967;-79
2022/08/28 10:12:17;;;;;;;;;;;28.90;49.30;;;;;;5065547;28;19974;-81
2022/08/28 10:14:55;;;;;;;;;;;28.90;50.00;;;;;;5071133;28;20404;-81
2022/08/28 10:17:30;;;;;;;;;;;29.00;49.20;;;;;;5055285;28;19932;-86
2022/08/28 10:20:15;;;;;;;;;;;29.00;49.50;;;;;;5070675;28;19933;-81
2022/08/28 10:22:58;;;;;;;;;;;29.00;49.40;;;;;;5072117;28;20560;-84
2022/08/28 10:25:43;;;;;;;;;;;29.20;48.70;;;;;;5066235;28;19933;-86
2022/08/28 10:28:25;;;;;;;;;;;29.20;47.60;;;;;;5047047;28;20343;-86
2022/08/28 10:30:57;;;;;;;;;;;29.20;48.20;;;;;;5063351;28;20283;-81
2022/08/28 10:33:24;;;;;;;;;;;29.20;47.20;;;;;;5071578;28;20007;-85
2022/08/28 10:35:54;;;;;;;;;;;29.30;48.10;;;;;;5058017;28;20019;-79
2022/08/28 10:38:38;;;;;;;;;;;29.40;46.30;;;;;;5049903;28;19925;-81
2022/08/28 10:41:25;;;;;;;;;;;29.40;47.10;;;;;;5064900;28;19924;-81
2022/08/28 10:43:53;;;;;;;;;;;29.40;48.10;;;;;;5042541;28;19928;-84
2022/08/28 10:46:28;;;;;;;;;;;29.40;47.50;;;;;;5065064;28;19956;-84
2022/08/28 10:48:57;;;;;;;;;;;29.40;47.50;;;;;;5085992;28;19931;-85
2022/08/28 10:51:33;;;;;;;;;;;29.60;46.70;;;;;;5053922;28;20385;-85
2022/08/28 10:54:06;;;;;;;;;;;29.70;47.10;;;;;;5064596;28;20464;-86
2022/08/28 10:56:35;;;;;;;;;;;29.70;47.40;;;;;;5070376;28;19947;-85
2022/08/28 10:59:02;;;;;;;;;;;29.80;47.10;;;;;;5072069;28;19967;-86
2022/08/28 11:01:34;;;;;;;;;;;29.90;47.10;;;;;;5059617;28;19931;-83
2022/08/28 11:04:04;;;;;;;;;;;30.10;46.70;;;;;;5060863;28;19929;-85
2022/08/28 11:06:35;;;;;;;;;;;30.20;46.20;;;;;;5051586;28;19929;-82
2022/08/28 11:09:23;;;;;;;;;;;30.30;45.20;;;;;;5069396;28;20419;-80
2022/08/28 11:11:52;;;;;;;;;;;30.30;46.00;;;;;;5067878;28;19924;-80
2022/08/28 11:14:24;;;;;;;;;;;30.20;45.80;;;;;;5059729;28;19974;-79
2022/08/28 11:16:55;;;;;;;;;;;30.30;46.40;;;;;;5067456;28;19969;-82
2022/08/28 11:19:31;;;;;;;;;;;30.40;46.20;;;;;;5048939;28;20037;-85
2022/08/28 11:22:07;;;;;;;;;;;30.30;46.20;;;;;;5050651;28;19924;-85
2022/08/28 11:24:43;;;;;;;;;;;30.40;44.70;;;;;;5072872;28;20335;-79
2022/08/28 11:27:10;;;;;;;;;;;30.40;45.60;;;;;;5053883;28;19925;-82
2022/08/28 11:29:55;;;;;;;;;;;30.40;46.50;;;;;;5068527;28;19928;-84
2022/08/28 11:32:31;;;;;;;;;;;30.40;46.80;;;;;;5058099;28;20335;-80
2022/08/28 11:35:24;;;;;;;;;;;30.50;45.80;;;;;;5055429;28;20343;-82
2022/08/28 11:37:53;;;;;;;;;;;30.60;46.90;;;;;;5051921;28;19970;-85
2022/08/28 11:40:20;;;;;;;;;;;30.70;46.50;;;;;;5059789;28;20381;-84
2022/08/28 11:42:50;;;;;;;;;;;30.90;46.30;;;;;;5050973;28;20347;-81
2022/08/28 11:45:21;;;;;;;;;;;31.10;45.60;;;;;;5056322;28;20422;-84
2022/08/28 11:47:52;;;;;;;;;;;31.10;44.30;;;;;;5068067;28;19976;-80
2022/08/28 11:50:21;;;;;;;;;;;31.00;44.90;;;;;;5048146;28;19933;-85
2022/08/28 11:52:51;;;;;;;;;;;30.90;44.90;;;;;;5055139;28;19925;-81
2022/08/28 11:55:21;;;;;;;;;;;30.80;45.80;;;;;;5073145;28;19936;-86
2022/08/28 11:58:03;;;;;;;;;;;31.00;46.00;;;;;;5054573;28;19964;-85
2022/08/28 12:00:29;;;;;;;;;;;31.20;44.90;;;;;;5046200;28;19928;-82
2022/08/28 12:03:14;;;;;;;;;;;31.40;45.60;;;;;;5069193;28;19946;-80
2022/08/28 12:05:52;;;;;;;;;;;31.50;45.20;;;;;;5051925;28;19925;-86
2022/08/28 12:08:37;;;;;;;;;;;31.60;44.80;;;;;;5067630;28;19924;-81
2022/08/28 12:11:04;;;;;;;;;;;31.80;44.70;;;;;;5052480;28;19971;-84
2022/08/28 12:13:50;;;;;;;;;;;32.10;44.50;;;;;;5048326;28;20451;-84
2022/08/28 12:16:17;;;;;;;;;;;32.20;43.20;;;;;;5042627;28;19928;-84
2022/08/28 12:18:47;;;;;;;;;;;32.30;43.30;;;;;;5049338;28;20008;-80
2022/08/28 12:21:23;;;;;;;;;;;32.40;42.20;;;;;;5051493;28;19927;-81
2022/08/28 12:24:02;;;;;;;;;;;32.60;42.10;;;;;;5041937;28;20304;-85
2022/08/28 12:26:37;;;;;;;;;;;32.50;40.60;;;;;;5065684;28;19936;-85
2022/08/28 12:29:16;;;;;;;;;;;32.50;41.30;;;;;;5075245;28;20299;-84
2022/08/28 12:34:36;;;;;;;;;;;32.70;40.00;;;;;;5075335;28;19924;-83
2022/08/28 12:37:04;;;;;;;;;;;32.70;40.80;;;;;;5058023;28;19925;-83
2022/08/28 12:39:31;;;;;;;;;;;32.80;41.20;;;;;;5059412;28;19960;-80
2022/08/28 12:42:00;;;;;;;;;;;33.00;39.20;;;;;;5054258;28;20339;-84
2022/08/28 12:44:29;;;;;;;;;;;32.80;39.60;;;;;;5052316;28;20413;-84
2022/08/28 12:46:57;;;;;;;;;;;32.70;40.40;;;;;;5049963;28;19924;-83
2022/08/28 12:49:26;;;;;;;;;;;32.80;41.10;;;;;;5064574;28;19974;-80
2022/08/28 12:52:10;;;;;;;;;;;33.00;41.00;;;;;;5053318;28;19924;-81
2022/08/28 12:54:43;;;;;;;;;;;33.20;42.00;;;;;;5065104;28;19929;-80
2022/08/28 12:57:14;;;;;;;;;;;33.50;39.90;;;;;;5045787;28;20303;-86
2022/08/28 12:59:42;;;;;;;;;;;33.50;38.90;;;;;;5046180;28;19928;-86
2022/08/28 13:02:25;;;;;;;;;;;33.50;38.50;;;;;;5064340;28;19924;-80
2022/08/28 13:04:52;;;;;;;;;;;33.50;39.10;;;;;;5053034;28;20023;-84
2022/08/28 13:07:44;;;;;;;;;;;33.30;38.40;;;;;;5046384;28;20023;-86
2022/08/28 13:10:22;;;;;;;;;;;33.20;39.80;;;;;;5046127;28;19924;-86
2022/08/28 13:12:57;;;;;;;;;;;33.20;39.30;;;;;;5038019;28;19977;-79
2022/08/28 13:15:46;;;;;;;;;;;33.30;39.60;;;;;;5041219;28;20339;-85
2022/08/28 13:18:32;;;;;;;;;;;33.50;39.10;;;;;;5047730;28;19970;-84
2022/08/28 13:21:16;;;;;;;;;;;33.60;40.10;;;;;;5067920;28;19977;-85
2022/08/28 13:24:20;;;;;;;;;;;33.60;38.70;;;;;;5067699;28;19925;-80
2022/08/28 13:26:48;;;;;;;;;;;33.90;39.10;;;;;;5061680;28;19970;-78
2022/08/28 13:29:18;;;;;;;;;;;33.90;37.00;;;;;;5065733;28;20358;-86
2022/08/28 13:31:53;;;;;;;;;;;34.00;38.10;;;;;;5066510;28;20018;-85
2022/08/28 13:34:24;;;;;;;;;;;34.00;37.90;;;;;;5079855;28;19954;-85
2022/08/28 13:36:52;;;;;;;;;;;33.90;38.00;;;;;;5081754;28;20388;-80
2022/08/28 13:39:19;;;;;;;;;;;33.90;38.30;;;;;;5064577;28;19950;-85
2022/08/28 13:41:48;;;;;;;;;;;34.00;38.60;;;;;;5062674;28;20330;-86
2022/08/28 13:44:25;;;;;;;;;;;34.20;38.80;;;;;;5079342;28;19958;-79
2022/08/28 13:46:52;;;;;;;;;;;34.40;37.90;;;;;;5054359;28;19932;-84
2022/08/28 13:49:20;;;;;;;;;;;34.50;37.30;;;;;;5081209;28;19931;-80
2022/08/28 13:51:47;;;;;;;;;;;34.50;37.10;;;;;;5062239;28;20446;-80
2022/08/28 13:54:14;;;;;;;;;;;34.40;37.40;;;;;;5061929;28;20001;-80
2022/08/28 13:56:41;;;;;;;;;;;34.40;37.00;;;;;;5058210;28;19933;-85
2022/08/28 13:59:08;;;;;;;;;;;34.40;36.80;;;;;;5084626;28;20384;-81
2022/08/28 14:04:21;;;;;;;;;;;34.40;37.20;;;;;;5081364;28;20284;-86
2022/08/28 14:06:49;;;;;;;;;;;34.60;36.90;;;;;;5058269;28;20339;-80
2022/08/28 14:09:15;;;;;;;;;;;34.60;35.60;;;;;;5057266;28;19935;-80
2022/08/28 14:11:46;;;;;;;;;;;34.60;36.40;;;;;;5071698;28;20012;-80
2022/08/28 14:14:13;;;;;;;;;;;34.60;36.40;;;;;;5057117;28;19947;-79
2022/08/28 14:16:40;;;;;;;;;;;34.60;36.30;;;;;;5065390;28;19978;-86
2022/08/28 14:19:07;;;;;;;;;;;34.60;36.40;;;;;;5055121;28;19929;-80
2022/08/28 14:21:36;;;;;;;;;;;34.60;36.30;;;;;;5072958;28;19974;-86
2022/08/28 14:24:03;;;;;;;;;;;34.60;36.30;;;;;;5062962;28;19935;-86
2022/08/28 14:26:30;;;;;;;;;;;34.60;35.30;;;;;;5060732;28;19928;-86
2022/08/28 14:28:58;;;;;;;;;;;34.60;35.70;;;;;;5065815;28;20316;-85
2022/08/28 14:31:25;;;;;;;;;;;34.70;36.20;;;;;;5051282;28;20004;-80
2022/08/28 14:33:52;;;;;;;;;;;34.70;35.80;;;;;;5051838;28;20311;-81
2022/08/28 14:36:20;;;;;;;;;;;34.70;35.90;;;;;;5061945;28;19974;-85
2022/08/28 14:38:48;;;;;;;;;;;34.80;35.90;;;;;;5055625;28;19932;-80
2022/08/28 14:41:20;;;;;;;;;;;35.10;35.50;;;;;;5061324;28;20384;-80
2022/08/28 14:43:48;;;;;;;;;;;35.20;35.60;;;;;;5073451;28;20386;-85
2022/08/28 14:46:16;;;;;;;;;;;35.40;34.60;;;;;;5069955;28;19924;-80
2022/08/28 14:48:43;;;;;;;;;;;35.30;33.70;;;;;;5059789;28;19938;-84
2022/08/28 14:51:10;;;;;;;;;;;35.20;34.30;;;;;;5083400;28;19967;-79
2022/08/28 14:53:36;;;;;;;;;;;34.90;33.70;;;;;;5064024;28;19925;-83